createdAt,value
2023-02-12T00:01:38.004Z,9.48
2023-02-12T00:04:11.091Z,9.68
2023-02-12T00:06:43.946Z,8.93
2023-02-12T00:09:16.896Z,9.43
2023-02-12T00:11:49.844Z,7.90
2023-02-12T00:14:24.147Z,9.77
2023-02-12T00:16:57.041Z,8.73
2023-02-12T00:19:30.022Z,9.30
2023-02-12T00:22:02.898Z,9.00
2023-02-12T00:24:35.761Z,9.73
2023-02-12T00:27:08.666Z,9.32
2023-02-12T00:29:43.034Z,9.63
2023-02-12T00:32:19.489Z,8.23
2023-02-12T00:34:52.618Z,9.55
2023-02-12T00:37:25.601Z,9.02
2023-02-12T00:39:58.620Z,9.85
2023-02-12T00:42:31.749Z,9.10
2023-02-12T00:45:06.895Z,10.32
2023-02-12T00:47:39.783Z,10.18
2023-02-12T00:50:13.333Z,9.80
2023-02-12T00:52:46.169Z,9.95
2023-02-12T00:55:19.420Z,10.10
2023-02-12T00:57:52.309Z,9.60
2023-02-12T01:00:26.892Z,9.93
2023-02-12T01:02:59.759Z,9.55
2023-02-12T01:05:33.429Z,8.32
2023-02-12T01:08:06.728Z,8.77
2023-02-12T01:10:39.743Z,8.90
2023-02-12T01:13:14.970Z,9.18
2023-02-12T01:15:49.348Z,8.60
2023-02-12T01:18:22.271Z,9.38
2023-02-12T01:20:55.229Z,9.90
2023-02-12T01:23:28.572Z,10.02
2023-02-12T01:26:01.779Z,10.15
2023-02-12T01:28:35.168Z,9.15
2023-02-12T01:31:14.746Z,10.05
2023-02-12T01:33:49.587Z,9.63
2023-02-12T01:36:23.570Z,9.85
2023-02-12T01:38:57.946Z,10.50
2023-02-12T01:41:32.872Z,9.93
2023-02-12T01:44:12.253Z,9.32
2023-02-12T01:46:48.478Z,10.18
2023-02-12T01:49:25.681Z,9.80
2023-02-12T01:52:03.890Z,9.50
2023-02-12T01:54:38.105Z,9.52
2023-02-12T01:57:15.414Z,8.95
2023-02-12T01:59:52.545Z,9.73
2023-02-12T02:02:26.982Z,9.57
2023-02-12T02:05:03.316Z,10.07
2023-02-12T02:07:36.727Z,9.27
2023-02-12T02:10:10.854Z,9.93
2023-02-12T02:13:00.990Z,9.60
2023-02-12T02:15:34.468Z,10.13
2023-02-12T02:18:12.964Z,9.38
2023-02-12T02:21:30.045Z,10.05
2023-02-12T02:24:36.004Z,9.90
2023-02-12T02:27:19.463Z,9.35
2023-02-12T02:30:33.847Z,9.27
2023-02-12T02:33:23.503Z,7.80
2023-02-12T02:36:07.808Z,8.98
2023-02-12T02:38:45.724Z,8.73
2023-02-12T02:41:26.272Z,8.43
2023-02-12T02:44:01.241Z,8.85
2023-02-12T02:46:38.902Z,9.00
2023-02-12T02:49:20.720Z,8.80
2023-02-12T02:54:34.750Z,8.40
2023-02-12T02:57:12.447Z,8.27
2023-02-12T02:59:50.542Z,8.95
2023-02-12T03:02:29.120Z,9.13
2023-02-12T03:05:07.525Z,8.85
2023-02-12T03:07:45.428Z,10.02
2023-02-12T03:10:21.992Z,9.75
2023-02-12T03:12:59.744Z,9.55
2023-02-12T03:15:36.966Z,9.30
2023-02-12T03:18:13.991Z,8.68
2023-02-12T03:20:53.160Z,9.57
2023-02-12T03:23:30.123Z,8.95
2023-02-12T03:26:07.812Z,9.93
2023-02-12T03:28:41.693Z,9.57
2023-02-12T03:31:25.723Z,9.27
2023-02-12T03:34:10.233Z,9.20
2023-02-12T03:36:52.747Z,9.35
2023-02-12T03:39:32.506Z,9.10
2023-02-12T03:42:11.990Z,9.93
2023-02-12T03:44:51.463Z,9.20
2023-02-12T03:47:30.607Z,8.93
2023-02-12T03:50:10.707Z,9.38
2023-02-12T03:52:45.681Z,9.30
2023-02-12T03:55:19.128Z,9.35
2023-02-12T03:57:55.575Z,9.70
2023-02-12T04:00:29.200Z,9.75
2023-02-12T04:03:02.276Z,9.80
2023-02-12T04:05:35.177Z,11.10
2023-02-12T04:08:10.946Z,9.25
2023-02-12T04:10:54.351Z,9.50
2023-02-12T04:13:34.602Z,9.25
2023-02-12T04:16:21.098Z,8.93
2023-02-12T04:18:55.326Z,8.98
2023-02-12T04:21:44.955Z,9.45
2023-02-12T04:24:24.578Z,8.98
2023-02-12T04:27:05.093Z,9.77
2023-02-12T04:29:48.360Z,9.40
2023-02-12T04:32:29.657Z,9.30
2023-02-12T04:35:09.192Z,8.38
2023-02-12T04:37:45.355Z,9.90
2023-02-12T04:40:22.940Z,8.98
2023-02-12T04:42:56.032Z,8.73
2023-02-12T04:45:31.907Z,9.95
2023-02-12T04:48:05.898Z,10.18
2023-02-12T04:50:41.621Z,9.88
2023-02-12T04:53:15.041Z,9.80
2023-02-12T04:55:50.749Z,8.73
2023-02-12T04:58:23.714Z,9.27
2023-02-12T05:01:00.229Z,8.35
2023-02-12T05:03:33.202Z,8.50
2023-02-12T05:06:07.315Z,8.73
2023-02-12T05:08:40.242Z,8.30
2023-02-12T05:11:14.763Z,9.60
2023-02-12T05:13:50.228Z,9.40
2023-02-12T05:16:23.786Z,10.00
2023-02-12T05:18:56.739Z,9.05
2023-02-12T05:21:29.672Z,9.38
2023-02-12T05:24:02.762Z,9.27
2023-02-12T05:26:37.376Z,9.77
2023-02-12T05:29:10.503Z,10.20
2023-02-12T05:31:43.533Z,9.95
2023-02-12T05:34:16.527Z,9.98
2023-02-12T05:36:49.410Z,8.85
2023-02-12T05:39:22.713Z,9.98
2023-02-12T05:41:57.109Z,9.65
2023-02-12T05:44:30.102Z,9.43
2023-02-12T05:47:02.993Z,9.32
2023-02-12T05:49:35.945Z,10.32
2023-02-12T05:52:08.932Z,10.63
2023-02-12T05:54:41.892Z,10.43
2023-02-12T05:57:16.563Z,9.10
2023-02-12T05:59:49.454Z,9.75
2023-02-12T06:02:22.307Z,10.02
2023-02-12T06:04:55.290Z,10.07
2023-02-12T06:07:28.301Z,8.82
2023-02-12T06:10:01.264Z,10.20
2023-02-12T06:12:35.573Z,9.55
2023-02-12T06:15:09.617Z,9.88
2023-02-12T06:17:42.452Z,9.20
2023-02-12T06:20:15.342Z,9.80
2023-02-12T06:22:48.683Z,10.13
2023-02-12T06:25:21.808Z,9.55
2023-02-12T06:27:56.143Z,9.57
2023-02-12T06:30:29.092Z,9.50
2023-02-12T06:33:02.325Z,10.25
2023-02-12T06:35:36.881Z,9.18
2023-02-12T06:38:09.855Z,10.82
2023-02-12T06:40:43.026Z,9.88
2023-02-12T06:43:17.252Z,9.73
2023-02-12T06:45:50.169Z,10.00
2023-02-12T06:48:23.186Z,9.98
2023-02-12T06:50:56.148Z,10.80
2023-02-12T06:53:28.985Z,10.35
2023-02-12T06:56:02.602Z,11.25
2023-02-12T06:58:36.923Z,11.52
2023-02-12T07:01:13.754Z,10.63
2023-02-12T07:03:50.309Z,10.95
2023-02-12T07:06:24.364Z,11.20
2023-02-12T07:08:58.391Z,10.52
2023-02-12T07:11:36.152Z,11.77
2023-02-12T07:14:16.533Z,11.60
2023-02-12T07:16:49.513Z,12.55
2023-02-12T07:19:22.927Z,13.25
2023-02-12T07:21:55.832Z,11.63
2023-02-12T07:24:29.016Z,11.98
2023-02-12T07:27:02.018Z,12.98
2023-02-12T07:29:36.412Z,12.60
2023-02-12T07:32:09.477Z,12.95
2023-02-12T07:34:42.416Z,12.38
2023-02-12T07:37:15.305Z,12.07
2023-02-12T07:39:48.237Z,12.85
2023-02-12T07:42:21.304Z,12.73
2023-02-12T07:44:55.609Z,12.65
2023-02-12T07:47:28.538Z,11.32
2023-02-12T07:50:01.413Z,13.23
2023-02-12T07:52:34.329Z,12.18
2023-02-12T07:55:08.159Z,13.13
2023-02-12T07:57:41.054Z,13.05
2023-02-12T08:00:17.309Z,12.88
2023-02-12T08:02:54.241Z,12.93
2023-02-12T08:05:27.240Z,13.73
2023-02-12T08:08:00.136Z,13.77
2023-02-12T08:10:33.097Z,14.40
2023-02-12T08:13:06.055Z,14.40
2023-02-12T08:15:40.430Z,14.18
2023-02-12T08:18:13.437Z,13.73
2023-02-12T08:20:46.273Z,14.00
2023-02-12T08:23:19.210Z,15.32
2023-02-12T08:25:52.093Z,14.85
2023-02-12T08:28:25.396Z,14.63
2023-02-12T08:31:03.864Z,14.32
2023-02-12T08:33:36.734Z,14.98
2023-02-12T08:36:11.694Z,15.57
2023-02-12T08:38:45.505Z,14.32
2023-02-12T08:41:21.748Z,16.10
2023-02-12T08:43:56.125Z,15.20
2023-02-12T08:46:32.275Z,16.20
2023-02-12T08:49:07.440Z,16.20
2023-02-12T08:51:42.825Z,15.85
2023-02-12T08:54:17.942Z,15.82
2023-02-12T08:56:51.458Z,17.25
2023-02-12T08:59:24.787Z,17.77
2023-02-12T09:02:00.581Z,17.05
2023-02-12T09:04:34.311Z,17.42
2023-02-12T09:07:10.346Z,16.38
2023-02-12T09:09:43.681Z,15.50
2023-02-12T09:12:16.547Z,16.83
2023-02-12T09:14:49.793Z,17.23
2023-02-12T09:17:27.473Z,15.82
2023-02-12T09:20:01.538Z,16.05
2023-02-12T09:22:38.117Z,16.10
2023-02-12T09:25:11.193Z,15.95
2023-02-12T09:27:44.052Z,17.42
2023-02-12T09:30:17.745Z,17.60
2023-02-12T09:32:52.030Z,16.48
2023-02-12T09:35:24.979Z,16.10
2023-02-12T09:37:57.918Z,15.27
2023-02-12T09:40:37.187Z,16.42
2023-02-12T09:43:19.127Z,16.90
2023-02-12T09:48:43.257Z,15.32
2023-02-12T09:51:16.417Z,15.93
2023-02-12T09:53:51.251Z,15.40
2023-02-12T09:56:25.909Z,16.45
2023-02-12T09:59:02.979Z,16.50
2023-02-12T10:01:36.650Z,15.73
2023-02-12T10:04:11.098Z,17.27
2023-02-12T10:06:55.160Z,16.80
2023-02-12T10:09:43.291Z,15.80
2023-02-12T10:12:26.242Z,15.98
2023-02-12T10:15:18.169Z,16.67
2023-02-12T10:18:02.809Z,15.98
2023-02-12T10:20:53.250Z,16.27
2023-02-12T10:23:52.363Z,15.38
2023-02-12T10:26:29.682Z,15.60
2023-02-12T10:29:12.274Z,15.02
2023-02-12T10:31:49.841Z,17.13
2023-02-12T10:34:26.130Z,16.60
2023-02-12T10:37:05.725Z,16.55
2023-02-12T10:39:44.098Z,15.73
2023-02-12T10:42:20.687Z,15.95
2023-02-12T10:44:53.721Z,16.58
2023-02-12T10:47:27.286Z,16.27
2023-02-12T10:50:02.747Z,16.80
2023-02-12T10:52:46.119Z,17.73
2023-02-12T10:55:27.881Z,16.27
2023-02-12T10:58:02.676Z,16.13
2023-02-12T11:00:37.232Z,17.30
2023-02-12T11:03:22.193Z,16.45
2023-02-12T11:05:55.405Z,16.60
2023-02-12T11:08:36.577Z,15.65
2023-02-12T11:11:12.875Z,14.73
2023-02-12T11:13:49.985Z,15.60
2023-02-12T11:16:31.746Z,13.93
2023-02-12T11:21:38.844Z,12.88
2023-02-12T11:24:31.919Z,14.45
2023-02-12T11:27:30.961Z,14.73
2023-02-12T11:30:15.855Z,14.60
2023-02-12T11:32:51.713Z,14.15
2023-02-12T11:35:28.527Z,15.60
2023-02-12T11:38:02.691Z,15.15
2023-02-12T11:40:37.467Z,15.52
2023-02-12T11:43:19.634Z,14.80
2023-02-12T11:45:56.412Z,15.02
2023-02-12T11:48:34.799Z,14.32
2023-02-12T11:51:10.715Z,13.77
2023-02-12T11:53:48.940Z,12.93
2023-02-12T11:56:23.543Z,13.55
2023-02-12T11:59:13.693Z,14.48
2023-02-12T12:01:47.821Z,14.88
2023-02-12T12:04:24.207Z,13.63
2023-02-12T12:07:01.814Z,13.43
2023-02-12T12:09:42.569Z,13.82
2023-02-12T12:12:21.551Z,14.45
2023-02-12T12:15:16.814Z,13.05
2023-02-12T12:18:15.246Z,14.38
2023-02-12T12:20:52.758Z,13.82
2023-02-12T12:23:33.196Z,14.13
2023-02-12T12:26:09.596Z,13.75
2023-02-12T12:28:49.009Z,14.15
2023-02-12T12:31:26.846Z,13.02
2023-02-12T12:34:07.260Z,14.02
2023-02-12T12:37:07.479Z,15.02
2023-02-12T12:39:53.487Z,14.40
2023-02-12T12:43:03.038Z,14.52
2023-02-12T12:46:13.704Z,14.20
2023-02-12T12:49:12.448Z,13.82
2023-02-12T12:52:03.927Z,13.02
2023-02-12T12:54:53.416Z,12.23
2023-02-12T12:57:42.679Z,12.77
2023-02-12T13:00:29.593Z,14.07
2023-02-12T13:03:39.850Z,11.18
2023-02-12T13:06:47.748Z,11.93
2023-02-12T13:09:50.820Z,11.02
2023-02-12T13:12:52.885Z,12.02
2023-02-12T13:15:34.862Z,11.52
2023-02-12T13:18:28.952Z,11.73
2023-02-12T13:21:11.627Z,11.95
2023-02-12T13:23:51.055Z,11.10
2023-02-12T13:26:31.484Z,11.52
2023-02-12T13:29:11.190Z,10.88
2023-02-12T13:31:50.430Z,11.18
2023-02-12T13:34:26.606Z,10.85
2023-02-12T13:37:03.374Z,11.65
2023-02-12T13:39:40.081Z,11.00
2023-02-12T13:42:28.957Z,11.32
2023-02-12T13:45:18.317Z,10.52
2023-02-12T13:48:00.937Z,10.40
2023-02-12T13:50:42.960Z,11.35
2023-02-12T13:53:24.577Z,12.15
2023-02-12T13:56:08.070Z,10.32
2023-02-12T13:58:49.389Z,10.63
2023-02-12T14:01:46.646Z,10.48
2023-02-12T14:04:32.601Z,10.23
2023-02-12T14:07:10.319Z,10.68
2023-02-12T14:09:47.507Z,10.02
2023-02-12T14:12:33.505Z,9.43
2023-02-12T14:15:09.157Z,8.68
2023-02-12T14:17:53.803Z,8.63
2023-02-12T14:20:29.612Z,9.38
2023-02-12T14:23:32.025Z,9.73
2023-02-12T14:26:12.295Z,9.15
2023-02-12T14:28:52.788Z,8.35
2023-02-12T14:31:34.978Z,9.50
2023-02-12T14:34:48.579Z,10.32
2023-02-12T14:37:38.162Z,10.38
2023-02-12T14:40:42.739Z,10.50
2023-02-12T14:43:29.487Z,10.20
2023-02-12T14:46:35.785Z,9.38
2023-02-12T14:49:21.943Z,8.23
2023-02-12T14:52:01.530Z,8.50
2023-02-12T14:54:38.011Z,8.73
2023-02-12T14:57:21.553Z,8.70
2023-02-12T14:59:59.183Z,7.97
2023-02-12T15:02:36.758Z,7.47
2023-02-12T15:05:18.322Z,7.70
2023-02-12T15:07:55.720Z,7.15
2023-02-12T15:10:31.974Z,7.07
2023-02-12T15:13:16.898Z,6.45
2023-02-12T15:15:56.930Z,6.57
2023-02-12T15:18:37.001Z,6.45
2023-02-12T15:21:20.641Z,5.80
2023-02-12T15:24:04.556Z,5.63
2023-02-12T15:26:42.029Z,5.72
2023-02-12T15:29:22.688Z,5.65
2023-02-12T15:31:59.626Z,6.07
2023-02-12T15:34:35.496Z,5.85
2023-02-12T15:37:09.616Z,5.30
2023-02-12T15:39:45.556Z,5.40
2023-02-12T15:42:27.710Z,5.97
2023-02-12T15:45:17.363Z,4.57
2023-02-12T15:48:01.918Z,5.80
2023-02-12T15:50:36.537Z,5.25
2023-02-12T15:53:10.127Z,5.40
2023-02-12T15:55:46.455Z,6.10
2023-02-12T15:58:23.884Z,4.88
2023-02-12T16:01:02.444Z,4.90
2023-02-12T16:03:39.377Z,4.82
2023-02-12T16:06:16.691Z,5.35
2023-02-12T16:08:51.702Z,4.55
2023-02-12T16:11:27.327Z,4.85
2023-02-12T16:14:02.788Z,4.78
2023-02-12T16:16:45.398Z,4.90
2023-02-12T16:19:23.266Z,4.32
2023-02-12T16:22:01.991Z,4.75
2023-02-12T16:24:38.033Z,4.80
2023-02-12T16:27:20.212Z,4.93
2023-02-12T16:29:55.630Z,5.05
2023-02-12T16:32:32.236Z,6.07
2023-02-12T16:35:24.555Z,5.78
2023-02-12T16:38:03.665Z,5.43
2023-02-12T16:40:37.823Z,6.07
2023-02-12T16:43:26.364Z,5.25
2023-02-12T16:46:06.791Z,5.68
2023-02-12T16:48:41.653Z,5.60
2023-02-12T16:51:25.019Z,4.90
2023-02-12T16:53:59.078Z,5.55
2023-02-12T16:56:34.405Z,5.65
2023-02-12T16:59:07.451Z,5.15
2023-02-12T17:01:40.494Z,5.10
2023-02-12T17:04:16.538Z,4.70
2023-02-12T17:06:50.788Z,5.38
2023-02-12T17:09:23.728Z,5.47
2023-02-12T17:11:56.770Z,5.20
2023-02-12T17:14:29.973Z,5.35
2023-02-12T17:17:02.954Z,5.20
2023-02-12T17:19:36.027Z,5.70
2023-02-12T17:22:19.593Z,5.50
2023-02-12T17:24:53.352Z,5.13
2023-02-12T17:27:26.338Z,5.25
2023-02-12T17:29:59.294Z,5.55
2023-02-12T17:32:32.142Z,5.75
2023-02-12T17:35:06.659Z,6.03
2023-02-12T17:37:40.956Z,5.35
2023-02-12T17:40:14.154Z,5.43
2023-02-12T17:42:47.064Z,5.53
2023-02-12T17:45:21.113Z,4.63
2023-02-12T17:47:54.910Z,5.10
2023-02-12T17:50:28.354Z,4.95
2023-02-12T17:53:02.656Z,4.32
2023-02-12T17:55:38.786Z,4.82
2023-02-12T17:58:11.676Z,4.53
2023-02-12T18:00:44.959Z,4.05
2023-02-12T18:03:17.824Z,5.00
2023-02-12T18:05:50.786Z,4.18
2023-02-12T18:08:25.186Z,4.65
2023-02-12T18:10:58.484Z,4.00
2023-02-12T18:13:31.538Z,4.47
2023-02-12T18:16:07.569Z,4.75
2023-02-12T18:18:41.363Z,4.50
2023-02-12T18:21:15.924Z,4.38
2023-02-12T18:23:50.327Z,5.15
2023-02-12T18:26:24.188Z,4.50
2023-02-12T18:28:58.410Z,4.18
2023-02-12T18:31:31.649Z,4.45
2023-02-12T18:34:05.736Z,4.57
2023-02-12T18:36:38.721Z,3.88
2023-02-12T18:39:13.004Z,4.40
2023-02-12T18:41:46.594Z,5.45
2023-02-12T18:44:19.711Z,5.65
2023-02-12T18:46:52.902Z,5.43
2023-02-12T18:49:25.866Z,5.28
2023-02-12T18:51:59.015Z,5.53
2023-02-12T18:54:33.644Z,5.97
2023-02-12T18:57:06.673Z,6.47
2023-02-12T18:59:39.647Z,5.00
2023-02-12T19:02:13.764Z,5.95
2023-02-12T19:04:46.835Z,5.50
2023-02-12T19:07:19.806Z,5.75
2023-02-12T19:09:54.209Z,5.25
2023-02-12T19:12:27.224Z,4.95
2023-02-12T19:15:00.129Z,4.30
2023-02-12T19:17:34.704Z,5.07
2023-02-12T19:20:09.453Z,5.28
2023-02-12T19:22:42.694Z,4.82
2023-02-12T19:25:17.356Z,5.22
2023-02-12T19:27:50.239Z,5.05
2023-02-12T19:30:23.277Z,5.20
2023-02-12T19:32:56.589Z,4.72
2023-02-12T19:35:29.487Z,4.75
2023-02-12T19:38:03.101Z,5.13
2023-02-12T19:40:37.452Z,4.88
2023-02-12T19:43:10.377Z,4.68
2023-02-12T19:45:43.267Z,5.63
2023-02-12T19:48:16.234Z,5.13
2023-02-12T19:50:49.119Z,5.45
2023-02-12T19:53:22.092Z,4.72
2023-02-12T19:55:56.502Z,4.70
2023-02-12T19:58:30.325Z,5.20
2023-02-12T20:01:09.027Z,5.07
2023-02-12T20:03:42.346Z,5.18
2023-02-12T20:06:17.523Z,5.65
2023-02-12T20:08:51.132Z,5.03
2023-02-12T20:11:27.205Z,5.10
2023-02-12T20:14:01.829Z,5.10
2023-02-12T20:16:38.296Z,4.88
2023-02-12T20:19:13.915Z,4.88
2023-02-12T20:21:48.827Z,4.93
2023-02-12T20:24:22.612Z,4.55
2023-02-12T20:26:58.124Z,5.32
2023-02-12T20:29:31.424Z,5.07
2023-02-12T20:32:04.398Z,4.97
2023-02-12T20:34:50.150Z,4.60
2023-02-12T20:37:23.965Z,4.68
2023-02-12T20:39:56.903Z,4.85
2023-02-12T20:42:31.558Z,5.50
2023-02-12T20:45:05.223Z,5.00
2023-02-12T20:47:38.327Z,6.03
2023-02-12T20:50:11.779Z,4.90
2023-02-12T20:52:45.180Z,5.63
2023-02-12T20:55:18.170Z,5.82
2023-02-12T20:57:52.566Z,6.63
2023-02-12T21:00:25.611Z,5.85
2023-02-12T21:03:00.977Z,5.75
2023-02-12T21:05:34.244Z,5.78
2023-02-12T21:08:07.440Z,7.03
2023-02-12T21:10:40.322Z,5.93
2023-02-12T21:13:14.556Z,5.93
2023-02-12T21:15:47.697Z,5.30
2023-02-12T21:18:24.249Z,6.10
2023-02-12T21:21:01.796Z,5.70
2023-02-12T21:23:35.367Z,5.35
2023-02-12T21:26:10.500Z,6.25
2023-02-12T21:28:45.480Z,5.57
2023-02-12T21:31:22.170Z,6.85
2023-02-12T21:33:56.541Z,5.63
2023-02-12T21:36:31.950Z,6.35
2023-02-12T21:39:06.507Z,6.82
2023-02-12T21:41:41.001Z,5.80
2023-02-12T21:44:17.174Z,5.82
2023-02-12T21:46:50.702Z,5.45
2023-02-12T21:49:28.284Z,6.15
2023-02-12T21:52:03.613Z,5.53
2023-02-12T21:54:36.797Z,6.20
2023-02-12T21:57:09.690Z,6.35
2023-02-12T21:59:43.991Z,6.38
2023-02-12T22:02:16.957Z,6.20
2023-02-12T22:04:50.347Z,6.45
2023-02-12T22:07:23.286Z,6.30
2023-02-12T22:09:56.887Z,6.75
2023-02-12T22:12:32.502Z,6.57
2023-02-12T22:15:07.778Z,6.75
2023-02-12T22:17:40.770Z,6.47
2023-02-12T22:20:13.897Z,6.28
2023-02-12T22:22:46.833Z,5.85
2023-02-12T22:25:19.864Z,6.13
2023-02-12T22:27:52.835Z,6.28
2023-02-12T22:30:27.178Z,6.18
2023-02-12T22:33:00.234Z,7.53
2023-02-12T22:35:33.604Z,7.68
2023-02-12T22:38:06.591Z,7.85
2023-02-12T22:40:39.454Z,8.32
2023-02-12T22:43:12.791Z,8.00
2023-02-12T22:45:47.056Z,7.78
2023-02-12T22:48:19.952Z,7.68
2023-02-12T22:50:53.346Z,7.68
2023-02-12T22:53:27.114Z,7.15
2023-02-12T22:56:04.011Z,7.18
2023-02-12T22:58:38.785Z,7.20
2023-02-12T23:01:14.515Z,7.05
2023-02-12T23:03:47.622Z,6.68
2023-02-12T23:06:23.044Z,6.43
2023-02-12T23:08:59.124Z,6.30
2023-02-12T23:11:33.830Z,6.72
2023-02-12T23:14:07.281Z,7.35
2023-02-12T23:16:41.837Z,6.32
2023-02-12T23:19:14.992Z,6.47
2023-02-12T23:21:47.859Z,7.30
2023-02-12T23:24:20.812Z,7.40
2023-02-12T23:26:54.155Z,6.95
2023-02-12T23:29:27.218Z,7.43
2023-02-12T23:32:01.539Z,7.43
2023-02-12T23:34:34.556Z,7.28
2023-02-12T23:37:07.503Z,6.80
2023-02-12T23:39:40.384Z,7.28
2023-02-12T23:42:13.268Z,7.28
2023-02-12T23:44:46.404Z,6.72
2023-02-12T23:47:20.637Z,6.90
2023-02-12T23:49:53.603Z,6.93
2023-02-12T23:52:26.483Z,6.57
2023-02-12T23:54:59.426Z,6.82
2023-02-12T23:57:32.273Z,7.13
